createdAt,value
2022-11-13T00:01:15.553Z,26.40
2022-11-13T00:06:09.665Z,25.70
2022-11-13T00:08:36.087Z,21.70
2022-11-13T00:11:08.538Z,24.10
2022-11-13T00:13:35.770Z,22.67
2022-11-13T00:16:05.113Z,23.90
2022-11-13T00:18:33.892Z,25.35
2022-11-13T00:21:15.168Z,25.17
2022-11-13T00:23:42.448Z,22.85
2022-11-13T00:26:19.510Z,22.70
2022-11-13T00:28:46.999Z,21.90
2022-11-13T00:31:15.666Z,25.67
2022-11-13T00:36:28.964Z,23.98
2022-11-13T00:38:55.924Z,24.85
2022-11-13T00:41:23.915Z,25.67
2022-11-13T00:43:50.630Z,27.77
2022-11-13T00:46:17.172Z,26.30
2022-11-13T00:48:43.590Z,24.83
2022-11-13T00:51:10.056Z,26.03
2022-11-13T00:53:37.099Z,25.17
2022-11-13T00:56:04.016Z,25.97
2022-11-13T00:58:30.750Z,25.92
2022-11-13T01:01:05.162Z,26.95
2022-11-13T01:03:31.616Z,25.27
2022-11-13T01:05:58.053Z,24.98
2022-11-13T01:08:24.738Z,21.15
2022-11-13T01:10:53.953Z,25.58
2022-11-13T01:13:20.859Z,25.43
2022-11-13T01:15:47.431Z,21.52
2022-11-13T01:18:13.897Z,26.35
2022-11-13T01:20:40.842Z,22.98
2022-11-13T01:23:07.264Z,25.07
2022-11-13T01:25:36.084Z,24.23
2022-11-13T01:28:02.650Z,24.00
2022-11-13T01:30:29.044Z,23.17
2022-11-13T01:32:55.754Z,20.23
2022-11-13T01:35:22.364Z,22.60
2022-11-13T01:37:48.751Z,21.87
2022-11-13T01:40:16.357Z,22.67
2022-11-13T01:42:42.735Z,19.90
2022-11-13T01:45:54.304Z,20.00
2022-11-13T01:48:20.938Z,20.13
2022-11-13T01:50:47.661Z,22.43
2022-11-13T01:53:14.183Z,22.05
2022-11-13T01:55:40.748Z,22.30
2022-11-13T01:58:10.254Z,20.53
2022-11-13T02:00:36.803Z,20.17
2022-11-13T02:03:03.575Z,18.42
2022-11-13T02:05:30.220Z,22.20
2022-11-13T02:07:56.913Z,17.80
2022-11-13T02:10:23.531Z,20.33
2022-11-13T02:12:51.689Z,18.08
2022-11-13T02:15:25.203Z,18.08
2022-11-13T02:17:55.345Z,17.65
2022-11-13T02:20:35.142Z,19.08
2022-11-13T02:23:19.484Z,17.93
2022-11-13T02:25:50.409Z,16.52
2022-11-13T02:30:44.661Z,14.95
2022-11-13T02:33:26.708Z,18.02
2022-11-13T02:35:53.206Z,17.05
2022-11-13T02:38:19.864Z,15.60
2022-11-13T02:40:46.364Z,19.97
2022-11-13T02:43:12.925Z,20.23
2022-11-13T02:45:39.405Z,20.97
2022-11-13T02:48:06.836Z,17.00
2022-11-13T02:50:34.197Z,18.47
2022-11-13T02:53:00.940Z,17.20
2022-11-13T02:55:27.401Z,15.75
2022-11-13T02:57:53.880Z,16.03
2022-11-13T03:00:20.716Z,17.97
2022-11-13T03:02:47.146Z,20.47
2022-11-13T03:05:14.246Z,16.20
2022-11-13T03:07:41.516Z,21.38
2022-11-13T03:10:09.221Z,18.57
2022-11-13T03:12:35.823Z,20.07
2022-11-13T03:15:02.546Z,16.03
2022-11-13T03:17:31.647Z,16.27
2022-11-13T03:19:58.424Z,14.82
2022-11-13T03:22:25.227Z,16.85
2022-11-13T03:24:51.571Z,15.87
2022-11-13T03:27:18.256Z,15.97
2022-11-13T03:29:44.831Z,16.63
2022-11-13T03:32:11.314Z,15.75
2022-11-13T03:34:37.622Z,17.97
2022-11-13T03:37:04.237Z,15.90
2022-11-13T03:39:30.882Z,14.55
2022-11-13T03:41:57.535Z,18.92
2022-11-13T03:44:23.940Z,18.17
2022-11-13T03:46:50.529Z,14.45
2022-11-13T03:49:17.203Z,14.95
2022-11-13T03:51:43.782Z,16.92
2022-11-13T03:54:10.159Z,15.93
2022-11-13T03:56:36.735Z,15.70
2022-11-13T03:59:03.095Z,17.25
2022-11-13T04:01:29.659Z,15.77
2022-11-13T04:03:56.347Z,15.77
2022-11-13T04:06:22.690Z,15.57
2022-11-13T04:08:49.019Z,16.77
2022-11-13T04:11:15.713Z,17.60
2022-11-13T04:13:42.128Z,16.98
2022-11-13T04:16:08.842Z,15.83
2022-11-13T04:18:35.283Z,16.90
2022-11-13T04:21:03.498Z,14.80
2022-11-13T04:23:30.425Z,15.63
2022-11-13T04:25:57.249Z,20.33
2022-11-13T04:28:23.844Z,19.30
2022-11-13T04:30:52.714Z,16.93
2022-11-13T04:33:19.157Z,16.63
2022-11-13T04:35:45.770Z,16.13
2022-11-13T04:38:13.218Z,18.87
2022-11-13T04:40:40.493Z,17.47
2022-11-13T04:43:07.413Z,21.00
2022-11-13T04:45:34.616Z,14.70
2022-11-13T04:48:01.026Z,14.00
2022-11-13T04:50:27.447Z,14.73
2022-11-13T04:52:53.885Z,14.30
2022-11-13T04:55:20.285Z,22.53
2022-11-13T04:57:46.794Z,23.73
2022-11-13T05:00:13.669Z,18.87
2022-11-13T05:02:40.339Z,15.20
2022-11-13T05:05:07.048Z,15.93
2022-11-13T05:07:33.671Z,14.43
2022-11-13T05:09:59.957Z,14.97
2022-11-13T05:12:26.279Z,16.27
2022-11-13T05:14:52.679Z,14.33
2022-11-13T05:17:19.029Z,14.17
2022-11-13T05:19:45.542Z,15.43
2022-11-13T05:22:11.927Z,15.90
2022-11-13T05:24:38.331Z,17.53
2022-11-13T05:27:04.889Z,17.63
2022-11-13T05:29:31.498Z,20.13
2022-11-13T05:31:57.877Z,19.80
2022-11-13T05:34:24.525Z,19.47
2022-11-13T05:36:50.884Z,16.03
2022-11-13T05:39:17.282Z,18.00
2022-11-13T05:41:43.871Z,15.07
2022-11-13T05:44:10.590Z,15.30
2022-11-13T05:46:37.032Z,16.80
2022-11-13T05:49:04.638Z,16.07
2022-11-13T05:51:33.558Z,15.97
2022-11-13T05:54:01.031Z,15.30
2022-11-13T05:56:29.961Z,18.50
2022-11-13T05:58:58.494Z,15.23
2022-11-13T06:01:28.592Z,14.23
2022-11-13T06:03:58.267Z,15.20
2022-11-13T06:06:26.708Z,16.87
2022-11-13T06:08:55.055Z,17.67
2022-11-13T06:11:24.761Z,17.70
2022-11-13T06:13:53.331Z,17.47
2022-11-13T06:16:23.141Z,18.57
2022-11-13T06:18:50.400Z,13.93
2022-11-13T06:21:20.326Z,12.80
2022-11-13T06:23:46.995Z,12.93
2022-11-13T06:26:19.420Z,14.17
2022-11-13T06:28:46.627Z,12.73
2022-11-13T06:31:19.841Z,12.27
2022-11-13T06:33:47.983Z,13.40
2022-11-13T06:36:20.460Z,13.47
2022-11-13T06:38:47.535Z,12.13
2022-11-13T06:41:15.974Z,11.93
2022-11-13T06:43:43.218Z,14.17
2022-11-13T06:46:18.447Z,19.03
2022-11-13T06:48:45.382Z,14.37
2022-11-13T06:51:18.351Z,12.90
2022-11-13T06:53:45.303Z,15.83
2022-11-13T06:56:12.996Z,14.87
2022-11-13T06:58:39.909Z,12.40
2022-11-13T07:01:14.863Z,13.37
2022-11-13T07:03:42.028Z,11.27
2022-11-13T07:06:11.283Z,10.97
2022-11-13T07:08:37.623Z,11.67
2022-11-13T07:11:04.162Z,11.43
2022-11-13T07:13:30.709Z,11.77
2022-11-13T07:16:09.351Z,10.73
2022-11-13T07:18:42.317Z,9.40
2022-11-13T07:21:11.469Z,10.33
2022-11-13T07:23:38.569Z,10.47
2022-11-13T07:26:05.587Z,9.77
2022-11-13T07:28:32.030Z,10.07
2022-11-13T07:30:59.609Z,10.70
2022-11-13T07:33:26.023Z,10.77
2022-11-13T07:35:57.106Z,10.50
2022-11-13T07:38:23.826Z,9.63
2022-11-13T07:40:51.249Z,9.50
2022-11-13T07:43:18.194Z,10.73
2022-11-13T07:45:44.855Z,11.40
2022-11-13T07:48:11.383Z,10.77
2022-11-13T07:50:38.844Z,10.50
2022-11-13T07:53:07.796Z,11.80
2022-11-13T07:55:35.488Z,11.83
2022-11-13T07:58:02.925Z,13.20
2022-11-13T08:00:30.918Z,14.17
2022-11-13T08:02:57.678Z,11.80
2022-11-13T08:05:24.310Z,10.60
2022-11-13T08:07:52.043Z,11.40
2022-11-13T08:10:20.219Z,10.60
2022-11-13T08:12:47.535Z,10.43
2022-11-13T08:15:15.045Z,10.80
2022-11-13T08:17:41.701Z,9.67
2022-11-13T08:20:08.795Z,10.33
2022-11-13T08:22:35.308Z,12.47
2022-11-13T08:25:02.079Z,11.83
2022-11-13T08:27:28.530Z,9.97
2022-11-13T08:29:54.895Z,10.63
2022-11-13T08:32:21.830Z,10.20
2022-11-13T08:34:48.160Z,12.15
2022-11-13T08:37:15.623Z,11.13
2022-11-13T08:39:42.219Z,10.77
2022-11-13T08:42:08.660Z,12.80
2022-11-13T08:44:35.172Z,13.30
2022-11-13T08:47:01.531Z,13.13
2022-11-13T08:49:27.997Z,11.60
2022-11-13T08:51:54.394Z,12.03
2022-11-13T08:54:20.728Z,13.47
2022-11-13T08:56:54.508Z,12.90
2022-11-13T08:59:22.663Z,12.73
2022-11-13T09:01:50.026Z,10.70
2022-11-13T09:04:16.371Z,11.50
2022-11-13T09:06:42.749Z,12.25
2022-11-13T09:09:09.338Z,11.32
2022-11-13T09:11:35.789Z,12.20
2022-11-13T09:14:02.183Z,12.57
2022-11-13T09:16:28.597Z,10.98
2022-11-13T09:18:55.074Z,11.18
2022-11-13T09:21:21.752Z,12.18
2022-11-13T09:23:48.133Z,12.50
2022-11-13T09:26:14.579Z,13.93
2022-11-13T09:28:41.015Z,14.93
2022-11-13T09:31:08.173Z,14.57
2022-11-13T09:33:34.761Z,14.48
2022-11-13T09:36:01.653Z,13.50
2022-11-13T09:38:28.522Z,14.80
2022-11-13T09:40:57.968Z,14.80
2022-11-13T09:43:34.305Z,13.25
2022-11-13T09:46:10.557Z,14.38
2022-11-13T09:48:40.462Z,13.50
2022-11-13T09:51:16.610Z,13.87
2022-11-13T09:53:43.560Z,14.68
2022-11-13T09:56:12.796Z,15.20
2022-11-13T09:58:48.417Z,14.98
2022-11-13T10:01:40.112Z,14.55
2022-11-13T10:04:14.344Z,15.00
2022-11-13T10:07:03.677Z,14.80
2022-11-13T10:10:10.310Z,14.50
2022-11-13T10:12:36.874Z,15.77
2022-11-13T10:15:05.321Z,14.57
2022-11-13T10:17:46.909Z,16.67
2022-11-13T10:20:23.644Z,15.25
2022-11-13T10:23:06.122Z,16.58
2022-11-13T10:25:36.776Z,17.35
2022-11-13T10:28:35.392Z,17.08
2022-11-13T10:30:58.742Z,18.15
2022-11-13T10:33:25.342Z,17.25
2022-11-13T10:36:18.198Z,16.92
2022-11-13T10:38:50.414Z,15.75
2022-11-13T10:41:21.637Z,17.58
2022-11-13T10:44:01.614Z,15.55
2022-11-13T10:46:30.406Z,16.23
2022-11-13T10:48:58.892Z,14.85
2022-11-13T10:51:31.953Z,15.82
2022-11-13T10:53:59.217Z,15.13
2022-11-13T10:56:26.509Z,15.13
2022-11-13T10:59:10.573Z,14.93
2022-11-13T11:01:37.396Z,15.73
2022-11-13T11:04:06.031Z,14.27
2022-11-13T11:07:12.595Z,15.10
2022-11-13T11:09:41.944Z,15.52
2022-11-13T11:12:17.462Z,15.25
2022-11-13T11:14:59.342Z,14.40
2022-11-13T11:17:52.415Z,14.35
2022-11-13T11:20:53.240Z,15.63
2022-11-13T11:23:32.833Z,14.63
2022-11-13T11:26:15.693Z,14.75
2022-11-13T11:28:46.747Z,13.77
2022-11-13T11:31:32.646Z,14.65
2022-11-13T11:34:23.947Z,15.18
2022-11-13T11:37:03.064Z,14.07
2022-11-13T11:39:37.433Z,14.27
2022-11-13T11:42:41.659Z,14.32
2022-11-13T11:45:20.068Z,13.63
2022-11-13T11:47:47.006Z,14.45
2022-11-13T11:50:15.958Z,12.73
2022-11-13T11:53:07.633Z,13.13
2022-11-13T11:55:52.958Z,13.27
2022-11-13T11:58:52.317Z,13.18
2022-11-13T12:01:30.781Z,12.57
2022-11-13T12:04:13.709Z,12.32
2022-11-13T12:06:49.200Z,12.75
2022-11-13T12:09:26.830Z,11.98
2022-11-13T12:12:36.997Z,12.02
2022-11-13T12:15:08.692Z,12.10
2022-11-13T12:17:56.464Z,12.70
2022-11-13T12:20:31.839Z,11.77
2022-11-13T12:23:28.781Z,12.82
2022-11-13T12:26:04.050Z,12.18
2022-11-13T12:28:53.196Z,12.18
2022-11-13T12:31:37.510Z,13.05
2022-11-13T12:34:19.830Z,12.15
2022-11-13T12:36:47.541Z,13.48
2022-11-13T12:39:36.039Z,12.82
2022-11-13T12:42:20.502Z,12.93
2022-11-13T12:44:52.737Z,12.02
2022-11-13T12:47:19.599Z,11.98
2022-11-13T12:49:46.038Z,12.77
2022-11-13T12:52:21.539Z,12.52
2022-11-13T12:54:48.806Z,12.70
2022-11-13T12:57:15.149Z,11.95
2022-11-13T12:59:45.498Z,12.13
2022-11-13T13:02:14.580Z,12.80
2022-11-13T13:05:18.682Z,12.88
2022-11-13T13:08:05.227Z,12.20
2022-11-13T13:10:52.635Z,11.80
2022-11-13T13:13:38.235Z,12.05
2022-11-13T13:16:06.006Z,12.38
2022-11-13T13:18:37.605Z,10.98
2022-11-13T13:21:19.154Z,11.70
2022-11-13T13:23:48.948Z,11.43
2022-11-13T13:26:15.431Z,11.47
2022-11-13T13:28:46.859Z,11.98
2022-11-13T13:31:13.203Z,10.07
2022-11-13T13:33:59.539Z,11.18
2022-11-13T13:36:30.633Z,11.88
2022-11-13T13:39:23.815Z,11.07
2022-11-13T13:42:28.980Z,11.25
2022-11-13T13:45:32.773Z,11.85
2022-11-13T13:48:00.972Z,11.63
2022-11-13T13:50:32.762Z,10.82
2022-11-13T13:53:00.402Z,10.98
2022-11-13T13:55:36.734Z,11.07
2022-11-13T13:58:08.687Z,10.80
2022-11-13T14:00:44.610Z,10.85
2022-11-13T14:03:22.995Z,11.20
2022-11-13T14:05:49.389Z,11.30
2022-11-13T14:08:27.332Z,11.45
2022-11-13T14:10:53.914Z,10.75
2022-11-13T14:13:29.384Z,10.95
2022-11-13T14:16:07.016Z,10.02
2022-11-13T14:18:34.963Z,12.13
2022-11-13T14:21:06.016Z,11.35
2022-11-13T14:23:39.819Z,10.75
2022-11-13T14:26:07.250Z,10.85
2022-11-13T14:28:44.098Z,9.75
2022-11-13T14:31:14.114Z,11.32
2022-11-13T14:33:50.297Z,11.23
2022-11-13T14:36:29.203Z,11.63
2022-11-13T14:38:56.504Z,10.93
2022-11-13T14:41:38.454Z,10.80
2022-11-13T14:44:05.908Z,11.82
2022-11-13T14:46:37.924Z,11.30
2022-11-13T14:49:11.506Z,15.07
2022-11-13T14:51:38.125Z,14.25
2022-11-13T14:54:08.879Z,11.93
2022-11-13T14:56:41.648Z,11.57
2022-11-13T14:59:20.025Z,13.45
2022-11-13T15:01:56.993Z,12.68
2022-11-13T15:04:24.578Z,12.95
2022-11-13T15:06:52.150Z,12.13
2022-11-13T15:09:18.849Z,12.15
2022-11-13T15:11:45.292Z,12.55
2022-11-13T15:14:17.083Z,12.88
2022-11-13T15:16:47.695Z,12.32
2022-11-13T15:19:20.702Z,11.82
2022-11-13T15:22:05.499Z,12.18
2022-11-13T15:24:34.022Z,12.98
2022-11-13T15:27:01.881Z,11.98
2022-11-13T15:29:28.315Z,13.10
2022-11-13T15:31:54.746Z,13.05
2022-11-13T15:34:21.277Z,12.68
2022-11-13T15:36:48.004Z,12.23
2022-11-13T15:39:22.975Z,12.98
2022-11-13T15:41:50.014Z,12.30
2022-11-13T15:44:16.488Z,13.90
2022-11-13T15:46:42.866Z,12.45
2022-11-13T15:49:09.530Z,12.18
2022-11-13T15:51:45.849Z,14.40
2022-11-13T15:54:25.410Z,13.02
2022-11-13T15:56:51.836Z,14.13
2022-11-13T15:59:18.279Z,12.95
2022-11-13T16:01:44.709Z,14.50
2022-11-13T16:04:11.272Z,14.05
2022-11-13T16:06:37.786Z,14.05
2022-11-13T16:09:04.842Z,13.35
2022-11-13T16:11:33.304Z,14.32
2022-11-13T16:14:00.105Z,13.85
2022-11-13T16:16:35.924Z,13.45
2022-11-13T16:19:03.219Z,12.85
2022-11-13T16:21:30.708Z,14.55
2022-11-13T16:23:57.267Z,13.52
2022-11-13T16:26:26.118Z,15.13
2022-11-13T16:29:12.827Z,14.50
2022-11-13T16:31:40.252Z,14.00
2022-11-13T16:34:06.617Z,14.43
2022-11-13T16:36:33.228Z,14.30
2022-11-13T16:38:59.812Z,16.10
2022-11-13T16:41:26.266Z,15.68
2022-11-13T16:43:52.831Z,16.30
2022-11-13T16:46:31.936Z,16.98
2022-11-13T16:48:58.899Z,18.60
2022-11-13T16:51:25.254Z,16.42
2022-11-13T16:53:51.701Z,16.65
2022-11-13T16:56:21.954Z,16.90
2022-11-13T16:58:48.339Z,19.08
2022-11-13T17:01:16.484Z,17.30
2022-11-13T17:03:43.712Z,17.75
2022-11-13T17:06:24.929Z,16.55
2022-11-13T17:08:52.368Z,16.85
2022-11-13T17:11:19.701Z,16.45
2022-11-13T17:13:54.180Z,17.52
2022-11-13T17:16:22.131Z,16.85
2022-11-13T17:18:48.815Z,17.10
2022-11-13T17:21:16.515Z,19.42
2022-11-13T17:23:43.338Z,20.20
2022-11-13T17:26:10.554Z,17.60
2022-11-13T17:28:37.180Z,16.95
2022-11-13T17:31:08.238Z,18.05
2022-11-13T17:33:35.257Z,17.80
2022-11-13T17:36:01.621Z,19.48
2022-11-13T17:38:28.373Z,18.73
2022-11-13T17:40:55.070Z,16.52
2022-11-13T17:43:22.069Z,20.42
2022-11-13T17:45:52.353Z,20.70
2022-11-13T17:48:18.979Z,16.23
2022-11-13T17:50:45.821Z,15.13
2022-11-13T17:53:13.365Z,19.95
2022-11-13T17:55:41.155Z,19.67
2022-11-13T17:58:07.694Z,16.40
2022-11-13T18:00:34.398Z,15.57
2022-11-13T18:03:00.778Z,14.52
2022-11-13T18:05:27.161Z,16.33
2022-11-13T18:07:53.705Z,15.73
2022-11-13T18:10:20.413Z,15.00
2022-11-13T18:12:47.103Z,17.67
2022-11-13T18:15:13.461Z,18.20
2022-11-13T18:17:39.769Z,18.70
2022-11-13T18:20:06.803Z,20.40
2022-11-13T18:22:33.222Z,20.38
2022-11-13T18:24:59.664Z,21.00
2022-11-13T18:27:27.839Z,18.77
2022-11-13T18:29:54.520Z,18.95
2022-11-13T18:32:21.122Z,16.98
2022-11-13T18:34:47.491Z,17.02
2022-11-13T18:37:14.065Z,16.80
2022-11-13T18:39:40.602Z,17.65
2022-11-13T18:42:07.094Z,16.55
2022-11-13T18:44:33.384Z,16.58
2022-11-13T18:46:59.831Z,16.67
2022-11-13T18:49:26.205Z,17.13
2022-11-13T18:51:52.823Z,17.98
2022-11-13T18:54:19.495Z,19.17
2022-11-13T18:56:45.942Z,18.65
2022-11-13T18:59:12.331Z,18.73
2022-11-13T19:01:39.125Z,17.95
2022-11-13T19:04:22.259Z,19.52
2022-11-13T19:06:49.826Z,19.38
2022-11-13T19:09:17.771Z,19.40
2022-11-13T19:11:44.852Z,19.63
2022-11-13T19:14:15.917Z,20.92
2022-11-13T19:16:42.571Z,20.17
2022-11-13T19:19:18.625Z,18.25
2022-11-13T19:21:45.480Z,19.85
2022-11-13T19:24:12.090Z,20.88
2022-11-13T19:26:38.785Z,22.02
2022-11-13T19:29:05.216Z,20.38
2022-11-13T19:31:31.931Z,19.25
2022-11-13T19:33:59.919Z,19.27
2022-11-13T19:36:28.303Z,20.20
2022-11-13T19:38:55.604Z,18.67
2022-11-13T19:41:23.512Z,18.63
2022-11-13T19:43:50.152Z,19.67
2022-11-13T19:46:18.429Z,19.33
2022-11-13T19:48:46.142Z,19.00
2022-11-13T19:51:21.411Z,18.23
2022-11-13T19:53:52.397Z,18.00
2022-11-13T19:56:20.580Z,18.60
2022-11-13T19:58:48.744Z,19.60
2022-11-13T20:01:19.569Z,19.40
2022-11-13T20:06:14.279Z,17.70
2022-11-13T20:08:41.105Z,20.00
2022-11-13T20:11:10.040Z,20.47
2022-11-13T20:13:37.813Z,21.43
2022-11-13T20:16:06.164Z,19.35
2022-11-13T20:18:33.048Z,19.67
2022-11-13T20:21:00.313Z,19.93
2022-11-13T20:23:26.831Z,20.07
2022-11-13T20:25:55.615Z,20.37
2022-11-13T20:28:22.546Z,21.17
2022-11-13T20:30:49.397Z,22.50
2022-11-13T20:33:21.222Z,21.77
2022-11-13T20:35:55.054Z,21.43
2022-11-13T20:38:21.372Z,22.30
2022-11-13T20:40:47.823Z,22.73
2022-11-13T20:43:14.480Z,24.70
2022-11-13T20:45:41.119Z,24.67
2022-11-13T20:48:07.557Z,26.43
2022-11-13T20:50:37.835Z,26.43
2022-11-13T20:53:05.433Z,26.67
2022-11-13T20:55:31.812Z,27.63
2022-11-13T20:57:58.348Z,26.13
2022-11-13T21:00:24.743Z,29.23
2022-11-13T21:02:52.176Z,28.23
2022-11-13T21:05:18.806Z,27.70
2022-11-13T21:07:45.423Z,28.07
2022-11-13T21:10:12.135Z,26.20
2022-11-13T21:12:38.511Z,25.70
2022-11-13T21:15:05.534Z,25.93
2022-11-13T21:17:32.186Z,25.37
2022-11-13T21:19:58.600Z,26.77
2022-11-13T21:22:25.008Z,24.13
2022-11-13T21:24:51.330Z,26.03
2022-11-13T21:27:17.821Z,27.47
2022-11-13T21:29:44.473Z,25.87
2022-11-13T21:32:10.818Z,27.77
2022-11-13T21:34:37.236Z,28.17
2022-11-13T21:37:03.695Z,27.70
2022-11-13T21:39:30.261Z,26.23
2022-11-13T21:41:57.028Z,28.37
2022-11-13T21:44:23.792Z,27.63
2022-11-13T21:46:50.191Z,26.63
2022-11-13T21:49:16.657Z,26.57
2022-11-13T21:51:43.712Z,25.97
2022-11-13T21:54:10.207Z,25.97
2022-11-13T21:56:38.852Z,23.53
2022-11-13T21:59:06.324Z,23.10
2022-11-13T22:01:38.096Z,21.30
2022-11-13T22:04:06.288Z,22.27
2022-11-13T22:06:34.021Z,20.55
2022-11-13T22:09:13.248Z,20.67
2022-11-13T22:11:39.880Z,19.90
2022-11-13T22:14:06.702Z,20.80
2022-11-13T22:16:34.842Z,20.23
2022-11-13T22:19:02.917Z,20.40
2022-11-13T22:21:30.704Z,21.97
2022-11-13T22:23:58.142Z,21.43
2022-11-13T22:26:26.228Z,22.17
2022-11-13T22:28:53.704Z,21.03
2022-11-13T22:31:23.017Z,21.30
2022-11-13T22:33:54.380Z,22.50
2022-11-13T22:36:26.460Z,21.83
2022-11-13T22:38:53.390Z,20.50
2022-11-13T22:41:25.634Z,22.23
2022-11-13T22:43:54.787Z,21.85
2022-11-13T22:46:23.909Z,21.80
2022-11-13T22:48:52.211Z,23.03
2022-11-13T22:51:21.139Z,22.33
2022-11-13T22:54:01.448Z,21.70
2022-11-13T22:56:30.364Z,21.92
2022-11-13T22:58:58.682Z,21.93
2022-11-13T23:01:28.072Z,21.27
2022-11-13T23:03:56.404Z,22.17
2022-11-13T23:06:25.096Z,20.53
2022-11-13T23:08:53.871Z,20.57
2022-11-13T23:11:21.992Z,22.03
2022-11-13T23:13:52.561Z,21.57
2022-11-13T23:16:19.800Z,22.50
2022-11-13T23:18:47.274Z,19.97
2022-11-13T23:21:14.889Z,21.37
2022-11-13T23:23:41.398Z,22.17
2022-11-13T23:26:10.231Z,22.33
2022-11-13T23:28:37.502Z,21.60
2022-11-13T23:31:04.812Z,20.37
2022-11-13T23:33:31.598Z,20.83
2022-11-13T23:35:58.584Z,22.03
2022-11-13T23:38:25.164Z,21.00
2022-11-13T23:40:58.021Z,20.93
2022-11-13T23:43:47.384Z,21.47
2022-11-13T23:46:11.747Z,20.27
2022-11-13T23:48:40.013Z,22.00
2022-11-13T23:51:07.022Z,21.37
2022-11-13T23:53:33.692Z,22.23
2022-11-13T23:56:00.415Z,24.40
2022-11-13T23:58:27.281Z,22.53
